sensor_id;sensor_type;location;lat;lon;timestamp;temperature;humidity
54178;DHT22;40085;53.004;6.770;2023-07-20T00:01:45;15.20;99.90
54178;DHT22;40085;53.004;6.770;2023-07-20T00:04:11;15.20;99.90
54178;DHT22;40085;53.004;6.770;2023-07-20T00:06:37;15.30;99.90
54178;DHT22;40085;53.004;6.770;2023-07-20T00:09:08;15.30;99.90
54178;DHT22;40085;53.004;6.770;2023-07-20T00:11:38;15.20;99.90
54178;DHT22;40085;53.004;6.770;2023-07-20T00:14:05;15.60;99.90
54178;DHT22;40085;53.004;6.770;2023-07-20T00:16:31;15.80;99.90
54178;DHT22;40085;53.004;6.770;2023-07-20T00:18:56;15.50;99.90
54178;DHT22;40085;53.004;6.770;2023-07-20T00:21:22;15.10;99.90
54178;DHT22;40085;53.004;6.770;2023-07-20T00:23:48;15.30;99.90
54178;DHT22;40085;53.004;6.770;2023-07-20T00:26:13;15.20;99.90
54178;DHT22;40085;53.004;6.770;2023-07-20T00:28:39;15.40;98.60
54178;DHT22;40085;53.004;6.770;2023-07-20T00:31:04;15.50;97.10
54178;DHT22;40085;53.004;6.770;2023-07-20T00:33:30;15.10;96.70
54178;DHT22;40085;53.004;6.770;2023-07-20T00:35:56;14.90;93.70
54178;DHT22;40085;53.004;6.770;2023-07-20T00:38:21;15.70;92.20
54178;DHT22;40085;53.004;6.770;2023-07-20T00:40:47;15.30;90.90
54178;DHT22;40085;53.004;6.770;2023-07-20T00:43:14;14.90;91.60
54178;DHT22;40085;53.004;6.770;2023-07-20T00:45:41;15.50;92.10
54178;DHT22;40085;53.004;6.770;2023-07-20T00:48:07;15.20;92.90
54178;DHT22;40085;53.004;6.770;2023-07-20T00:50:34;14.80;80.50
54178;DHT22;40085;53.004;6.770;2023-07-20T00:53:00;14.70;74.50
54178;DHT22;40085;53.004;6.770;2023-07-20T00:55:28;14.80;55.90
54178;DHT22;40085;53.004;6.770;2023-07-20T00:57:54;15.00;50.30
54178;DHT22;40085;53.004;6.770;2023-07-20T01:00:20;15.00;50.80
54178;DHT22;40085;53.004;6.770;2023-07-20T01:02:45;14.70;52.70
54178;DHT22;40085;53.004;6.770;2023-07-20T01:05:12;15.00;59.50
54178;DHT22;40085;53.004;6.770;2023-07-20T01:07:46;14.50;91.90
54178;DHT22;40085;53.004;6.770;2023-07-20T01:10:20;15.00;91.60
54178;DHT22;40085;53.004;6.770;2023-07-20T01:12:52;14.70;91.20
54178;DHT22;40085;53.004;6.770;2023-07-20T01:15:18;14.40;92.80
54178;DHT22;40085;53.004;6.770;2023-07-20T01:17:44;14.50;92.90
54178;DHT22;40085;53.004;6.770;2023-07-20T01:20:13;14.50;93.40
54178;DHT22;40085;53.004;6.770;2023-07-20T01:23:00;14.90;93.30
54178;DHT22;40085;53.004;6.770;2023-07-20T01:28:28;14.60;99.30
54178;DHT22;40085;53.004;6.770;2023-07-20T01:31:13;14.40;99.40
54178;DHT22;40085;53.004;6.770;2023-07-20T01:33:41;14.20;99.90
54178;DHT22;40085;53.004;6.770;2023-07-20T01:36:07;14.20;99.90
54178;DHT22;40085;53.004;6.770;2023-07-20T01:38:34;14.30;99.90
54178;DHT22;40085;53.004;6.770;2023-07-20T01:41:00;14.20;99.90
54178;DHT22;40085;53.004;6.770;2023-07-20T01:43:25;14.90;99.90
54178;DHT22;40085;53.004;6.770;2023-07-20T01:45:51;14.40;99.90
54178;DHT22;40085;53.004;6.770;2023-07-20T02:02:53;13.80;98.30
54178;DHT22;40085;53.004;6.770;2023-07-20T02:05:19;14.10;99.90
54178;DHT22;40085;53.004;6.770;2023-07-20T02:07:44;13.70;99.90
54178;DHT22;40085;53.004;6.770;2023-07-20T02:10:10;13.70;99.90
54178;DHT22;40085;53.004;6.770;2023-07-20T02:12:35;13.70;99.90
54178;DHT22;40085;53.004;6.770;2023-07-20T02:15:02;13.70;99.90
54178;DHT22;40085;53.004;6.770;2023-07-20T02:17:28;13.40;99.90
54178;DHT22;40085;53.004;6.770;2023-07-20T02:19:54;13.60;99.90
54178;DHT22;40085;53.004;6.770;2023-07-20T02:22:20;14.50;99.90
54178;DHT22;40085;53.004;6.770;2023-07-20T02:24:46;13.30;99.90
54178;DHT22;40085;53.004;6.770;2023-07-20T02:27:12;13.40;99.90
54178;DHT22;40085;53.004;6.770;2023-07-20T02:29:38;13.50;99.90
54178;DHT22;40085;53.004;6.770;2023-07-20T02:32:04;13.40;99.90
54178;DHT22;40085;53.004;6.770;2023-07-20T02:34:30;13.40;99.90
54178;DHT22;40085;53.004;6.770;2023-07-20T02:36:55;13.40;99.90
54178;DHT22;40085;53.004;6.770;2023-07-20T02:39:24;13.30;99.90
54178;DHT22;40085;53.004;6.770;2023-07-20T02:41:50;14.00;99.90
54178;DHT22;40085;53.004;6.770;2023-07-20T02:44:15;13.20;99.90
54178;DHT22;40085;53.004;6.770;2023-07-20T02:46:41;13.20;99.90
54178;DHT22;40085;53.004;6.770;2023-07-20T02:49:07;13.20;99.90
54178;DHT22;40085;53.004;6.770;2023-07-20T02:51:32;13.30;99.90
54178;DHT22;40085;53.004;6.770;2023-07-20T02:53:58;13.30;99.90
54178;DHT22;40085;53.004;6.770;2023-07-20T02:56:24;13.30;99.90
54178;DHT22;40085;53.004;6.770;2023-07-20T02:58:50;13.30;99.90
54178;DHT22;40085;53.004;6.770;2023-07-20T03:01:15;13.30;99.90
54178;DHT22;40085;53.004;6.770;2023-07-20T03:03:42;13.40;99.90
54178;DHT22;40085;53.004;6.770;2023-07-20T03:06:11;13.10;99.90
54178;DHT22;40085;53.004;6.770;2023-07-20T03:08:37;13.10;99.90
54178;DHT22;40085;53.004;6.770;2023-07-20T03:11:02;13.50;99.90
54178;DHT22;40085;53.004;6.770;2023-07-20T03:13:28;13.60;99.90
54178;DHT22;40085;53.004;6.770;2023-07-20T03:15:53;13.10;99.90
54178;DHT22;40085;53.004;6.770;2023-07-20T03:18:19;13.10;99.90
54178;DHT22;40085;53.004;6.770;2023-07-20T05:32:37;13.90;99.90
54178;DHT22;40085;53.004;6.770;2023-07-20T05:35:03;13.80;99.90
54178;DHT22;40085;53.004;6.770;2023-07-20T05:37:29;14.10;99.90
54178;DHT22;40085;53.004;6.770;2023-07-20T05:39:54;14.00;99.90
54178;DHT22;40085;53.004;6.770;2023-07-20T05:42:20;14.20;99.90
54178;DHT22;40085;53.004;6.770;2023-07-20T05:44:46;14.70;99.90
54178;DHT22;40085;53.004;6.770;2023-07-20T05:47:13;14.40;99.90
54178;DHT22;40085;53.004;6.770;2023-07-20T05:49:39;14.60;99.90
54178;DHT22;40085;53.004;6.770;2023-07-20T05:52:04;14.90;99.90
54178;DHT22;40085;53.004;6.770;2023-07-20T05:54:30;14.80;99.90
54178;DHT22;40085;53.004;6.770;2023-07-20T05:56:56;14.80;99.70
54178;DHT22;40085;53.004;6.770;2023-07-20T05:59:21;14.80;98.00
54178;DHT22;40085;53.004;6.770;2023-07-20T06:01:49;15.10;96.40
54178;DHT22;40085;53.004;6.770;2023-07-20T06:04:14;14.90;94.80
54178;DHT22;40085;53.004;6.770;2023-07-20T06:06:40;15.50;94.20
54178;DHT22;40085;53.004;6.770;2023-07-20T06:09:06;15.30;94.00
54178;DHT22;40085;53.004;6.770;2023-07-20T06:11:35;15.20;92.60
54178;DHT22;40085;53.004;6.770;2023-07-20T06:14:01;15.40;90.00
54178;DHT22;40085;53.004;6.770;2023-07-20T06:16:27;15.40;90.00
54178;DHT22;40085;53.004;6.770;2023-07-20T06:18:52;15.50;90.00
54178;DHT22;40085;53.004;6.770;2023-07-20T06:21:18;15.20;87.50
54178;DHT22;40085;53.004;6.770;2023-07-20T06:23:44;16.10;88.40
54178;DHT22;40085;53.004;6.770;2023-07-20T06:26:09;15.20;87.90
54178;DHT22;40085;53.004;6.770;2023-07-20T06:31:02;15.90;99.80
54178;DHT22;40085;53.004;6.770;2023-07-20T06:33:28;15.80;84.30
54178;DHT22;40085;53.004;6.770;2023-07-20T06:35:53;16.60;74.10
54178;DHT22;40085;53.004;6.770;2023-07-20T06:38:19;15.80;72.30
54178;DHT22;40085;53.004;6.770;2023-07-20T06:40:48;15.80;3.30
54178;DHT22;40085;53.004;6.770;2023-07-20T06:43:14;16.00;1.00
54178;DHT22;40085;53.004;6.770;2023-07-20T06:45:40;16.10;99.90
54178;DHT22;40085;53.004;6.770;2023-07-20T06:48:06;16.20;99.90
54178;DHT22;40085;53.004;6.770;2023-07-20T06:50:31;16.30;99.90
54178;DHT22;40085;53.004;6.770;2023-07-20T06:52:57;16.50;4.90
54178;DHT22;40085;53.004;6.770;2023-07-20T06:55:24;16.60;99.90
54178;DHT22;40085;53.004;6.770;2023-07-20T06:57:50;16.70;99.80
54178;DHT22;40085;53.004;6.770;2023-07-20T07:00:16;16.80;99.90
54178;DHT22;40085;53.004;6.770;2023-07-20T07:02:42;16.90;27.10
54178;DHT22;40085;53.004;6.770;2023-07-20T07:05:07;17.30;99.90
54178;DHT22;40085;53.004;6.770;2023-07-20T07:07:33;16.90;99.90
54178;DHT22;40085;53.004;6.770;2023-07-20T07:09:59;17.50;81.90
54178;DHT22;40085;53.004;6.770;2023-07-20T07:12:25;17.20;99.90
54178;DHT22;40085;53.004;6.770;2023-07-20T07:14:50;17.20;99.90
54178;DHT22;40085;53.004;6.770;2023-07-20T07:17:16;17.20;95.20
54178;DHT22;40085;53.004;6.770;2023-07-20T07:19:42;17.40;1.00
54178;DHT22;40085;53.004;6.770;2023-07-20T07:22:08;17.40;99.90
54178;DHT22;40085;53.004;6.770;2023-07-20T07:24:33;17.70;99.90
54178;DHT22;40085;53.004;6.770;2023-07-20T07:27:02;17.50;1.00
54178;DHT22;40085;53.004;6.770;2023-07-20T07:29:29;17.70;1.00
54178;DHT22;40085;53.004;6.770;2023-07-20T07:31:55;18.00;1.00
54178;DHT22;40085;53.004;6.770;2023-07-20T07:34:20;17.80;1.00
54178;DHT22;40085;53.004;6.770;2023-07-20T07:36:46;17.70;1.00
54178;DHT22;40085;53.004;6.770;2023-07-20T07:39:12;18.60;99.90
54178;DHT22;40085;53.004;6.770;2023-07-20T07:41:38;18.00;99.90
54178;DHT22;40085;53.004;6.770;2023-07-20T07:44:04;18.00;99.90
54178;DHT22;40085;53.004;6.770;2023-07-20T07:46:29;18.20;99.90
54178;DHT22;40085;53.004;6.770;2023-07-20T07:48:55;18.40;99.90
54178;DHT22;40085;53.004;6.770;2023-07-20T07:51:20;18.10;99.90
54178;DHT22;40085;53.004;6.770;2023-07-20T07:53:46;18.50;99.90
54178;DHT22;40085;53.004;6.770;2023-07-20T07:56:12;18.70;99.90
54178;DHT22;40085;53.004;6.770;2023-07-20T08:01:04;18.50;99.90
54178;DHT22;40085;53.004;6.770;2023-07-20T08:03:30;18.50;99.90
54178;DHT22;40085;53.004;6.770;2023-07-20T08:05:55;18.30;99.90
54178;DHT22;40085;53.004;6.770;2023-07-20T08:08:22;18.20;99.90
54178;DHT22;40085;53.004;6.770;2023-07-20T08:10:48;18.70;99.90
54178;DHT22;40085;53.004;6.770;2023-07-20T08:13:14;18.60;99.90
54178;DHT22;40085;53.004;6.770;2023-07-20T08:15:45;18.80;99.90
54178;DHT22;40085;53.004;6.770;2023-07-20T08:18:11;18.80;99.90
54178;DHT22;40085;53.004;6.770;2023-07-20T08:20:37;19.20;99.90
54178;DHT22;40085;53.004;6.770;2023-07-20T08:23:02;19.20;95.30
54178;DHT22;40085;53.004;6.770;2023-07-20T08:25:28;18.90;93.50
54178;DHT22;40085;53.004;6.770;2023-07-20T08:27:53;18.90;94.10
54178;DHT22;40085;53.004;6.770;2023-07-20T08:30:21;19.20;88.60
54178;DHT22;40085;53.004;6.770;2023-07-20T08:32:48;18.90;83.20
54178;DHT22;40085;53.004;6.770;2023-07-20T08:35:14;18.60;66.30
54178;DHT22;40085;53.004;6.770;2023-07-20T08:37:41;18.70;69.70
54178;DHT22;40085;53.004;6.770;2023-07-20T08:40:07;18.80;70.90
54178;DHT22;40085;53.004;6.770;2023-07-20T08:42:34;18.90;70.30
54178;DHT22;40085;53.004;6.770;2023-07-20T08:45:00;19.00;71.00
54178;DHT22;40085;53.004;6.770;2023-07-20T08:47:26;18.90;66.90
54178;DHT22;40085;53.004;6.770;2023-07-20T08:49:52;18.80;60.20
54178;DHT22;40085;53.004;6.770;2023-07-20T08:52:19;18.90;58.90
54178;DHT22;40085;53.004;6.770;2023-07-20T08:54:45;19.20;58.00
54178;DHT22;40085;53.004;6.770;2023-07-20T08:57:13;19.50;59.50
54178;DHT22;40085;53.004;6.770;2023-07-20T08:59:40;19.50;59.50
54178;DHT22;40085;53.004;6.770;2023-07-20T09:02:08;19.60;54.20
54178;DHT22;40085;53.004;6.770;2023-07-20T09:04:37;19.60;44.70
54178;DHT22;40085;53.004;6.770;2023-07-20T09:07:03;19.80;47.20
54178;DHT22;40085;53.004;6.770;2023-07-20T09:09:29;19.70;38.20
54178;DHT22;40085;53.004;6.770;2023-07-20T09:11:54;19.70;40.70
54178;DHT22;40085;53.004;6.770;2023-07-20T09:14:23;20.10;52.90
54178;DHT22;40085;53.004;6.770;2023-07-20T09:16:50;19.70;27.90
54178;DHT22;40085;53.004;6.770;2023-07-20T09:19:16;19.70;27.10
54178;DHT22;40085;53.004;6.770;2023-07-20T09:21:47;19.70;15.40
54178;DHT22;40085;53.004;6.770;2023-07-20T09:24:13;19.60;16.70
54178;DHT22;40085;53.004;6.770;2023-07-20T09:26:43;19.50;15.50
54178;DHT22;40085;53.004;6.770;2023-07-20T09:29:08;19.50;14.20
54178;DHT22;40085;53.004;6.770;2023-07-20T09:31:37;19.30;15.50
54178;DHT22;40085;53.004;6.770;2023-07-20T09:34:05;19.50;99.90
54178;DHT22;40085;53.004;6.770;2023-07-20T09:36:34;19.50;99.90
54178;DHT22;40085;53.004;6.770;2023-07-20T09:39:00;20.00;99.90
54178;DHT22;40085;53.004;6.770;2023-07-20T09:41:26;19.90;99.90
54178;DHT22;40085;53.004;6.770;2023-07-20T09:43:52;19.90;99.90
54178;DHT22;40085;53.004;6.770;2023-07-20T09:46:18;20.20;99.90
54178;DHT22;40085;53.004;6.770;2023-07-20T09:48:52;19.90;99.90
54178;DHT22;40085;53.004;6.770;2023-07-20T09:51:23;19.90;99.90
54178;DHT22;40085;53.004;6.770;2023-07-20T09:53:50;20.30;99.90
54178;DHT22;40085;53.004;6.770;2023-07-20T09:56:21;20.30;99.90
54178;DHT22;40085;53.004;6.770;2023-07-20T09:58:48;19.90;99.90
54178;DHT22;40085;53.004;6.770;2023-07-20T10:01:17;20.40;99.90
54178;DHT22;40085;53.004;6.770;2023-07-20T10:03:45;20.50;99.90
54178;DHT22;40085;53.004;6.770;2023-07-20T10:06:15;20.60;99.90
54178;DHT22;40085;53.004;6.770;2023-07-20T10:11:08;20.90;13.00
54178;DHT22;40085;53.004;6.770;2023-07-20T10:13:38;20.80;22.20
54178;DHT22;40085;53.004;6.770;2023-07-20T10:16:10;20.60;19.50
54178;DHT22;40085;53.004;6.770;2023-07-20T10:19:07;20.60;15.80
54178;DHT22;40085;53.004;6.770;2023-07-20T10:21:44;20.20;15.80
54178;DHT22;40085;53.004;6.770;2023-07-20T10:24:13;20.50;18.70
54178;DHT22;40085;53.004;6.770;2023-07-20T10:26:40;20.20;21.10
54178;DHT22;40085;53.004;6.770;2023-07-20T10:29:05;20.30;21.30
54178;DHT22;40085;53.004;6.770;2023-07-20T10:31:32;20.50;23.60
54178;DHT22;40085;53.004;6.770;2023-07-20T10:33:58;20.60;23.70
54178;DHT22;40085;53.004;6.770;2023-07-20T10:36:26;20.60;24.10
54178;DHT22;40085;53.004;6.770;2023-07-20T10:38:56;20.60;24.80
54178;DHT22;40085;53.004;6.770;2023-07-20T10:41:37;21.20;20.40
54178;DHT22;40085;53.004;6.770;2023-07-20T10:44:06;20.60;18.20
54178;DHT22;40085;53.004;6.770;2023-07-20T10:49:05;20.60;16.20
54178;DHT22;40085;53.004;6.770;2023-07-20T10:51:46;21.30;17.50
54178;DHT22;40085;53.004;6.770;2023-07-20T10:56:42;20.30;13.30
54178;DHT22;40085;53.004;6.770;2023-07-20T11:01:48;20.20;10.70
54178;DHT22;40085;53.004;6.770;2023-07-20T11:04:17;20.20;8.80
54178;DHT22;40085;53.004;6.770;2023-07-20T11:06:48;20.40;13.50
54178;DHT22;40085;53.004;6.770;2023-07-20T11:09:22;21.00;13.20
54178;DHT22;40085;53.004;6.770;2023-07-20T11:12:17;20.60;12.70
54178;DHT22;40085;53.004;6.770;2023-07-20T11:14:53;20.70;10.00
54178;DHT22;40085;53.004;6.770;2023-07-20T11:17:19;20.80;10.60
54178;DHT22;40085;53.004;6.770;2023-07-20T11:19:55;20.90;11.80
54178;DHT22;40085;53.004;6.770;2023-07-20T11:22:21;20.90;12.50
54178;DHT22;40085;53.004;6.770;2023-07-20T11:24:47;20.80;9.90
54178;DHT22;40085;53.004;6.770;2023-07-20T11:27:14;20.70;9.70
54178;DHT22;40085;53.004;6.770;2023-07-20T11:29:40;20.70;9.50
54178;DHT22;40085;53.004;6.770;2023-07-20T11:32:06;20.60;8.60
54178;DHT22;40085;53.004;6.770;2023-07-20T11:34:32;20.60;8.50
54178;DHT22;40085;53.004;6.770;2023-07-20T11:36:59;20.50;8.40
54178;DHT22;40085;53.004;6.770;2023-07-20T11:39:25;20.40;8.20
54178;DHT22;40085;53.004;6.770;2023-07-20T11:42:00;20.60;8.10
54178;DHT22;40085;53.004;6.770;2023-07-20T11:44:29;20.80;7.60
54178;DHT22;40085;53.004;6.770;2023-07-20T11:47:01;20.90;6.30
54178;DHT22;40085;53.004;6.770;2023-07-20T11:49:30;19.90;6.80
54178;DHT22;40085;53.004;6.770;2023-07-20T11:51:57;19.90;7.30
54178;DHT22;40085;53.004;6.770;2023-07-20T11:54:23;19.80;5.60
54178;DHT22;40085;53.004;6.770;2023-07-20T11:56:54;19.70;5.00
54178;DHT22;40085;53.004;6.770;2023-07-20T11:59:20;19.70;2.50
54178;DHT22;40085;53.004;6.770;2023-07-20T12:01:46;19.70;5.40
54178;DHT22;40085;53.004;6.770;2023-07-20T12:04:11;19.60;4.70
54178;DHT22;40085;53.004;6.770;2023-07-20T12:06:37;19.60;3.70
54178;DHT22;40085;53.004;6.770;2023-07-20T12:09:03;19.80;3.20
54178;DHT22;40085;53.004;6.770;2023-07-20T12:11:35;19.50;1.90
54178;DHT22;40085;53.004;6.770;2023-07-20T12:14:01;19.50;2.40
54178;DHT22;40085;53.004;6.770;2023-07-20T12:16:28;19.60;2.20
54178;DHT22;40085;53.004;6.770;2023-07-20T12:21:31;20.40;12.10
54178;DHT22;40085;53.004;6.770;2023-07-20T12:23:57;19.70;1.00
54178;DHT22;40085;53.004;6.770;2023-07-20T12:26:24;19.90;1.40
54178;DHT22;40085;53.004;6.770;2023-07-20T12:28:51;20.20;4.80
54178;DHT22;40085;53.004;6.770;2023-07-20T12:31:16;20.40;4.90
54178;DHT22;40085;53.004;6.770;2023-07-20T12:33:42;20.40;4.40
54178;DHT22;40085;53.004;6.770;2023-07-20T12:36:09;20.40;5.10
54178;DHT22;40085;53.004;6.770;2023-07-20T12:38:34;20.30;5.90
54178;DHT22;40085;53.004;6.770;2023-07-20T12:41:01;20.30;6.40
54178;DHT22;40085;53.004;6.770;2023-07-20T12:43:27;20.30;6.00
54178;DHT22;40085;53.004;6.770;2023-07-20T12:45:53;20.20;3.80
54178;DHT22;40085;53.004;6.770;2023-07-20T12:48:19;20.10;2.90
54178;DHT22;40085;53.004;6.770;2023-07-20T12:50:44;20.10;2.70
54178;DHT22;40085;53.004;6.770;2023-07-20T12:53:10;20.00;2.20
54178;DHT22;40085;53.004;6.770;2023-07-20T12:55:38;19.90;1.40
54178;DHT22;40085;53.004;6.770;2023-07-20T12:58:04;19.90;1.80
54178;DHT22;40085;53.004;6.770;2023-07-20T13:00:30;19.40;5.20
54178;DHT22;40085;53.004;6.770;2023-07-20T13:02:57;19.20;8.00
54178;DHT22;40085;53.004;6.770;2023-07-20T13:05:23;18.90;10.80
54178;DHT22;40085;53.004;6.770;2023-07-20T13:07:49;19.00;20.70
54178;DHT22;40085;53.004;6.770;2023-07-20T13:10:15;19.40;20.30
54178;DHT22;40085;53.004;6.770;2023-07-20T13:12:41;19.00;22.30
54178;DHT22;40085;53.004;6.770;2023-07-20T13:15:08;19.30;35.30
54178;DHT22;40085;53.004;6.770;2023-07-20T13:17:39;18.70;41.70
54178;DHT22;40085;53.004;6.770;2023-07-20T13:20:09;18.70;64.90
54178;DHT22;40085;53.004;6.770;2023-07-20T13:22:37;18.80;77.80
54178;DHT22;40085;53.004;6.770;2023-07-20T13:25:02;18.80;81.50
54178;DHT22;40085;53.004;6.770;2023-07-20T13:27:28;19.10;90.70
54178;DHT22;40085;53.004;6.770;2023-07-20T13:29:55;19.10;79.30
54178;DHT22;40085;53.004;6.770;2023-07-20T13:32:22;19.20;61.90
54178;DHT22;40085;53.004;6.770;2023-07-20T13:34:48;19.10;53.50
54178;DHT22;40085;53.004;6.770;2023-07-20T13:37:14;19.10;51.80
54178;DHT22;40085;53.004;6.770;2023-07-20T13:39:39;19.10;49.90
54178;DHT22;40085;53.004;6.770;2023-07-20T13:42:06;19.20;52.80
54178;DHT22;40085;53.004;6.770;2023-07-20T13:44:32;19.10;42.20
54178;DHT22;40085;53.004;6.770;2023-07-20T13:46:58;18.90;41.70
54178;DHT22;40085;53.004;6.770;2023-07-20T13:49:23;19.80;38.80
54178;DHT22;40085;53.004;6.770;2023-07-20T13:51:49;19.00;35.70
54178;DHT22;40085;53.004;6.770;2023-07-20T13:54:15;18.90;32.50
54178;DHT22;40085;53.004;6.770;2023-07-20T13:56:41;18.90;32.90
54178;DHT22;40085;53.004;6.770;2023-07-20T13:59:06;18.80;34.50
54178;DHT22;40085;53.004;6.770;2023-07-20T14:01:32;18.80;39.10
54178;DHT22;40085;53.004;6.770;2023-07-20T14:04:01;18.90;39.20
54178;DHT22;40085;53.004;6.770;2023-07-20T14:06:31;19.00;37.50
54178;DHT22;40085;53.004;6.770;2023-07-20T14:08:57;19.30;28.20
54178;DHT22;40085;53.004;6.770;2023-07-20T14:11:23;19.20;33.80
54178;DHT22;40085;53.004;6.770;2023-07-20T14:13:53;19.20;32.10
54178;DHT22;40085;53.004;6.770;2023-07-20T14:16:19;19.30;31.90
54178;DHT22;40085;53.004;6.770;2023-07-20T14:18:45;20.10;38.60
54178;DHT22;40085;53.004;6.770;2023-07-20T14:21:14;20.20;40.90
54178;DHT22;40085;53.004;6.770;2023-07-20T14:23:40;20.20;45.60
54178;DHT22;40085;53.004;6.770;2023-07-20T14:26:05;20.60;48.40
54178;DHT22;40085;53.004;6.770;2023-07-20T14:28:32;20.90;49.80
54178;DHT22;40085;53.004;6.770;2023-07-20T14:30:58;20.80;48.10
54178;DHT22;40085;53.004;6.770;2023-07-20T14:33:24;20.90;39.90
54178;DHT22;40085;53.004;6.770;2023-07-20T14:35:50;20.80;40.20
54178;DHT22;40085;53.004;6.770;2023-07-20T14:38:15;20.60;35.80
54178;DHT22;40085;53.004;6.770;2023-07-20T14:40:41;20.50;34.50
54178;DHT22;40085;53.004;6.770;2023-07-20T14:43:07;20.50;31.70
54178;DHT22;40085;53.004;6.770;2023-07-20T14:45:32;20.60;32.90
54178;DHT22;40085;53.004;6.770;2023-07-20T14:47:58;20.80;30.60
54178;DHT22;40085;53.004;6.770;2023-07-20T14:50:24;20.80;28.10
54178;DHT22;40085;53.004;6.770;2023-07-20T14:52:50;20.30;24.80
54178;DHT22;40085;53.004;6.770;2023-07-20T14:55:16;20.50;23.40
54178;DHT22;40085;53.004;6.770;2023-07-20T14:57:42;20.50;22.00
54178;DHT22;40085;53.004;6.770;2023-07-20T15:00:08;20.90;24.20
54178;DHT22;40085;53.004;6.770;2023-07-20T15:02:38;20.80;24.30
54178;DHT22;40085;53.004;6.770;2023-07-20T15:05:08;21.30;23.90
54178;DHT22;40085;53.004;6.770;2023-07-20T15:07:34;21.10;23.30
54178;DHT22;40085;53.004;6.770;2023-07-20T15:10:01;21.10;21.00
54178;DHT22;40085;53.004;6.770;2023-07-20T15:12:26;21.10;17.60
54178;DHT22;40085;53.004;6.770;2023-07-20T15:15:07;21.20;18.00
54178;DHT22;40085;53.004;6.770;2023-07-20T15:17:34;21.30;16.50
54178;DHT22;40085;53.004;6.770;2023-07-20T15:20:00;21.60;20.20
54178;DHT22;40085;53.004;6.770;2023-07-20T15:22:33;21.10;17.40
54178;DHT22;40085;53.004;6.770;2023-07-20T15:24:59;20.90;14.90
54178;DHT22;40085;53.004;6.770;2023-07-20T15:27:24;20.60;20.50
54178;DHT22;40085;53.004;6.770;2023-07-20T15:29:50;20.60;13.20
54178;DHT22;40085;53.004;6.770;2023-07-20T15:32:18;20.20;12.70
54178;DHT22;40085;53.004;6.770;2023-07-20T15:34:44;20.40;12.70
54178;DHT22;40085;53.004;6.770;2023-07-20T15:37:10;20.10;11.40
54178;DHT22;40085;53.004;6.770;2023-07-20T15:39:37;19.90;11.30
54178;DHT22;40085;53.004;6.770;2023-07-20T15:42:03;19.90;11.30
54178;DHT22;40085;53.004;6.770;2023-07-20T15:44:29;20.00;11.70
54178;DHT22;40085;53.004;6.770;2023-07-20T15:46:54;20.20;12.90
54178;DHT22;40085;53.004;6.770;2023-07-20T15:49:21;20.40;14.80
54178;DHT22;40085;53.004;6.770;2023-07-20T15:51:47;20.50;16.40
54178;DHT22;40085;53.004;6.770;2023-07-20T15:54:13;20.60;17.70
54178;DHT22;40085;53.004;6.770;2023-07-20T15:56:41;20.50;14.10
54178;DHT22;40085;53.004;6.770;2023-07-20T15:59:09;20.60;15.10
54178;DHT22;40085;53.004;6.770;2023-07-20T16:01:35;20.60;13.50
54178;DHT22;40085;53.004;6.770;2023-07-20T16:04:01;20.60;12.60
54178;DHT22;40085;53.004;6.770;2023-07-20T16:06:27;20.50;9.90
54178;DHT22;40085;53.004;6.770;2023-07-20T16:08:53;20.30;10.10
54178;DHT22;40085;53.004;6.770;2023-07-20T16:11:19;20.40;20.90
54178;DHT22;40085;53.004;6.770;2023-07-20T16:13:47;20.40;11.10
54178;DHT22;40085;53.004;6.770;2023-07-20T16:16:13;20.40;9.60
54178;DHT22;40085;53.004;6.770;2023-07-20T16:18:38;20.40;8.90
54178;DHT22;40085;53.004;6.770;2023-07-20T16:21:04;20.60;12.20
54178;DHT22;40085;53.004;6.770;2023-07-20T16:23:30;20.70;12.30
54178;DHT22;40085;53.004;6.770;2023-07-20T16:25:56;20.90;14.00
54178;DHT22;40085;53.004;6.770;2023-07-20T16:28:22;21.10;15.60
54178;DHT22;40085;53.004;6.770;2023-07-20T16:30:48;21.40;17.10
54178;DHT22;40085;53.004;6.770;2023-07-20T16:33:13;21.80;20.50
54178;DHT22;40085;53.004;6.770;2023-07-20T16:35:40;22.30;21.30
54178;DHT22;40085;53.004;6.770;2023-07-20T16:38:07;22.10;17.20
54178;DHT22;40085;53.004;6.770;2023-07-20T16:40:35;21.90;15.60
54178;DHT22;40085;53.004;6.770;2023-07-20T16:43:00;22.60;19.00
54178;DHT22;40085;53.004;6.770;2023-07-20T16:45:26;23.60;24.10
54178;DHT22;40085;53.004;6.770;2023-07-20T16:50:18;26.10;22.30
54178;DHT22;40085;53.004;6.770;2023-07-20T16:52:44;26.30;34.80
54178;DHT22;40085;53.004;6.770;2023-07-20T16:55:10;27.10;33.90
54178;DHT22;40085;53.004;6.770;2023-07-20T16:57:35;28.00;37.10
54178;DHT22;40085;53.004;6.770;2023-07-20T17:00:02;28.90;42.20
54178;DHT22;40085;53.004;6.770;2023-07-20T17:02:28;29.50;41.50
54178;DHT22;40085;53.004;6.770;2023-07-20T17:04:54;29.50;40.00
54178;DHT22;40085;53.004;6.770;2023-07-20T17:07:19;29.70;37.70
54178;DHT22;40085;53.004;6.770;2023-07-20T17:09:45;30.00;36.80
54178;DHT22;40085;53.004;6.770;2023-07-20T17:12:11;29.00;27.40
54178;DHT22;40085;53.004;6.770;2023-07-20T17:14:36;28.00;18.30
54178;DHT22;40085;53.004;6.770;2023-07-20T17:17:03;28.00;17.50
54178;DHT22;40085;53.004;6.770;2023-07-20T17:19:30;28.50;20.20
54178;DHT22;40085;53.004;6.770;2023-07-20T17:21:55;29.40;25.60
54178;DHT22;40085;53.004;6.770;2023-07-20T17:24:21;30.30;30.60
54178;DHT22;40085;53.004;6.770;2023-07-20T17:26:47;29.20;23.20
54178;DHT22;40085;53.004;6.770;2023-07-20T17:29:12;27.80;13.40
54178;DHT22;40085;53.004;6.770;2023-07-20T17:31:38;26.80;15.60
54178;DHT22;40085;53.004;6.770;2023-07-20T17:34:04;25.80;1.00
54178;DHT22;40085;53.004;6.770;2023-07-20T17:36:31;25.00;1.00
54178;DHT22;40085;53.004;6.770;2023-07-20T17:38:56;24.20;1.00
54178;DHT22;40085;53.004;6.770;2023-07-20T17:41:23;23.40;1.00
54178;DHT22;40085;53.004;6.770;2023-07-20T17:43:48;23.00;1.00
54178;DHT22;40085;53.004;6.770;2023-07-20T17:46:14;22.50;1.00
54178;DHT22;40085;53.004;6.770;2023-07-20T17:48:40;22.40;1.00
54178;DHT22;40085;53.004;6.770;2023-07-20T17:51:06;22.20;1.00
54178;DHT22;40085;53.004;6.770;2023-07-20T17:53:32;22.30;1.00
54178;DHT22;40085;53.004;6.770;2023-07-20T17:55:58;21.80;1.00
54178;DHT22;40085;53.004;6.770;2023-07-20T17:58:23;21.60;1.00
54178;DHT22;40085;53.004;6.770;2023-07-20T18:00:49;21.30;1.00
54178;DHT22;40085;53.004;6.770;2023-07-20T18:03:15;20.90;1.00
54178;DHT22;40085;53.004;6.770;2023-07-20T18:05:40;21.00;1.00
54178;DHT22;40085;53.004;6.770;2023-07-20T18:08:06;20.80;1.00
54178;DHT22;40085;53.004;6.770;2023-07-20T18:10:32;20.70;1.00
54178;DHT22;40085;53.004;6.770;2023-07-20T18:12:57;20.50;1.00
54178;DHT22;40085;53.004;6.770;2023-07-20T18:15:23;20.60;1.00
54178;DHT22;40085;53.004;6.770;2023-07-20T18:17:50;20.30;1.00
54178;DHT22;40085;53.004;6.770;2023-07-20T18:20:15;20.20;1.00
54178;DHT22;40085;53.004;6.770;2023-07-20T18:22:41;20.10;1.00